Main page
METAR-TAF:

METAR-TAF

Airports :

Cluj International Airport

Cluj-Napoca, Romania

latitude: 46-47N, longitude: 023-34E, elevation: 315 m

Current weather observation

The report was made 36 minutes ago, at 11:30 UTC
Wind 3 kt from the East
Temperature 0°C
Humidity 69%
Pressure 1029 hPa
Visibility 10 km or more
Broken clouds at a height of 2200 ft

METAR: LRCL 221130Z 08003KT 9999 BKN022 00/M05 Q1029 R07/15//95

Time: 14:06 (12:06 UTC)

Forecast

The report was made 1 hour and 6 minutes ago, at 11:00 UTC
Forecast valid from 22 at 12 UTC to 22 at 21 UTC
Wind 4 kt from variable directions
Visibility 10 km or more
Broken clouds at a height of 2000 ft
Becoming
from 22 at 19 UTC to 22 at 21 UTC
Wind 10 kt from the Northwest

TAF: LRCL 221100Z 2212/2221 VRB04KT 9999 BKN020 BECMG 2219/2221 31010KT

Weather observations and forecasts of more than 4000 airports (METAR and TAF reports).

The available stations are represented by yellow and red dots on the map.

Hover mouse over dot to see the name of the station.

Then click to see weather observations and forecasts.

To change the map : click on the green buttons with a black cross to zoom in, on the green button with a dash to zoom out, or on the green arrows for adjacent maps.


METAR-TAF: